Time;durP1;ratioP1;P1;durP2;ratioP2;P2;SDS_P1;SDS_P2;PMS_P1;PMS_P2;Temp;Humidity;BMP_temperature;BMP_pressure;BME280_temperature;BME280_humidity;BME280_pressure;Samples;Min_cycle;Max_cycle;Signal;HPM_P1;HPM_P2
2022/05/08 00:00:10;;;;;;;;;16.67;13.33;;;;;;;;4935011;28;45416;-80
2022/05/08 00:02:35;;;;;;;;;15.33;15.33;;;;;;;;4927282;28;45497;-82
2022/05/08 00:05:01;;;;;;;;;14.67;13.33;;;;;;;;4921784;28;45858;-81
2022/05/08 00:07:26;;;;;;;;;20.00;15.00;;;;;;;;4922080;28;48417;-81
2022/05/08 00:09:52;;;;;;;;;20.67;18.67;;;;;;;;4936031;28;45560;-77
2022/05/08 00:12:17;;;;;;;;;13.33;13.00;;;;;;;;4934517;28;45437;-76
2022/05/08 00:14:43;;;;;;;;;19.00;17.00;;;;;;;;4933664;28;45463;-78
2022/05/08 00:17:13;;;;;;;;;21.00;16.00;;;;;;;;4931886;28;45494;-76
2022/05/08 00:19:40;;;;;;;;;16.00;13.67;;;;;;;;4923981;28;45800;-79
2022/05/08 00:22:06;;;;;;;;;14.00;12.33;;;;;;;;4919108;28;45771;-77
2022/05/08 00:24:31;;;;;;;;;16.67;14.67;;;;;;;;4932857;28;45933;-75
2022/05/08 00:26:57;;;;;;;;;20.00;14.00;;;;;;;;4919270;28;46893;-79
2022/05/08 00:29:22;;;;;;;;;17.33;11.33;;;;;;;;4937156;28;45451;-81
2022/05/08 00:31:47;;;;;;;;;15.00;14.33;;;;;;;;4919715;28;45407;-80
2022/05/08 00:34:12;;;;;;;;;12.67;12.67;;;;;;;;4916212;28;46483;-78
2022/05/08 00:36:38;;;;;;;;;14.33;14.33;;;;;;;;4936968;28;45291;-80
2022/05/08 00:39:04;;;;;;;;;10.00;8.33;;;;;;;;4937499;28;45406;-82
2022/05/08 00:41:29;;;;;;;;;19.00;15.67;;;;;;;;4937108;28;45418;-78
2022/05/08 00:43:55;;;;;;;;;19.33;16.00;;;;;;;;4933474;28;45686;-78
2022/05/08 00:46:20;;;;;;;;;19.00;17.33;;;;;;;;4933613;28;46369;-78
2022/05/08 00:48:45;;;;;;;;;15.67;14.33;;;;;;;;4939614;28;45374;-82
2022/05/08 00:51:11;;;;;;;;;19.00;15.00;;;;;;;;4926032;28;45697;-82
2022/05/08 00:53:38;;;;;;;;;20.67;17.33;;;;;;;;4941336;28;45862;-81
2022/05/08 00:56:05;;;;;;;;;17.00;14.33;;;;;;;;4940185;28;46335;-76
2022/05/08 00:58:30;;;;;;;;;19.67;17.33;;;;;;;;4935286;28;45780;-76
2022/05/08 01:00:56;;;;;;;;;19.33;15.67;;;;;;;;4916044;28;45662;-80
2022/05/08 01:03:21;;;;;;;;;16.67;14.33;;;;;;;;4951175;28;45594;-80
2022/05/08 01:05:48;;;;;;;;;20.33;15.00;;;;;;;;4959342;28;45792;-81
2022/05/08 01:08:14;;;;;;;;;13.67;13.67;;;;;;;;4959641;28;45818;-78
2022/05/08 01:10:39;;;;;;;;;15.33;14.67;;;;;;;;4941315;28;45399;-77
2022/05/08 01:13:05;;;;;;;;;16.00;15.00;;;;;;;;4955838;28;45311;-79
2022/05/08 01:15:38;;;;;;;;;23.33;18.33;;;;;;;;4955723;28;46281;-78
2022/05/08 01:18:03;;;;;;;;;17.67;16.67;;;;;;;;4959552;28;45740;-77
2022/05/08 01:20:42;;;;;;;;;19.33;16.67;;;;;;;;4960990;28;45780;-78
2022/05/08 01:23:34;;;;;;;;;23.67;17.67;;;;;;;;4962809;28;45966;-75
2022/05/08 01:26:20;;;;;;;;;17.33;16.33;;;;;;;;4969763;28;45699;-81
2022/05/08 01:28:54;;;;;;;;;14.67;14.00;;;;;;;;4949631;28;44783;-80
2022/05/08 01:31:38;;;;;;;;;17.67;15.67;;;;;;;;4929465;28;45430;-76
2022/05/08 01:34:10;;;;;;;;;20.67;15.00;;;;;;;;4948021;28;45309;-76
2022/05/08 01:36:41;;;;;;;;;19.33;18.33;;;;;;;;4964332;28;45572;-76
2022/05/08 01:39:12;;;;;;;;;18.00;13.33;;;;;;;;4957753;28;45395;-74
2022/05/08 01:41:38;;;;;;;;;27.33;21.33;;;;;;;;4962565;28;44890;-77
2022/05/08 01:44:06;;;;;;;;;15.33;14.67;;;;;;;;4961922;28;45461;-77
2022/05/08 01:46:31;;;;;;;;;22.33;14.00;;;;;;;;4963627;28;45401;-76
2022/05/08 01:48:57;;;;;;;;;22.33;22.33;;;;;;;;4941293;28;45739;-76
2022/05/08 01:51:28;;;;;;;;;20.00;16.33;;;;;;;;4935924;28;45400;-78
2022/05/08 01:54:05;;;;;;;;;26.33;18.00;;;;;;;;4946509;28;45298;-80
2022/05/08 01:56:44;;;;;;;;;19.67;18.33;;;;;;;;4940791;28;45711;-80
2022/05/08 01:59:09;;;;;;;;;24.67;22.33;;;;;;;;4936070;28;45490;-76
2022/05/08 02:01:35;;;;;;;;;25.00;24.00;;;;;;;;4918001;28;45949;-76
2022/05/08 02:04:01;;;;;;;;;29.67;23.33;;;;;;;;4935569;28;45453;-76
2022/05/08 02:06:26;;;;;;;;;24.33;21.00;;;;;;;;4935214;28;45423;-77
2022/05/08 02:08:52;;;;;;;;;18.67;17.67;;;;;;;;4933647;28;45499;-75
2022/05/08 02:11:17;;;;;;;;;29.00;23.33;;;;;;;;4931719;28;45803;-77
2022/05/08 02:13:42;;;;;;;;;24.33;18.00;;;;;;;;4954201;28;45380;-77
2022/05/08 02:16:11;;;;;;;;;24.00;19.67;;;;;;;;4955180;28;46929;-79
2022/05/08 02:18:36;;;;;;;;;24.33;21.00;;;;;;;;4926793;28;45527;-80
2022/05/08 02:21:01;;;;;;;;;26.33;24.33;;;;;;;;4949731;28;45307;-82
2022/05/08 02:23:26;;;;;;;;;27.00;24.67;;;;;;;;4957939;28;45403;-81
2022/05/08 02:25:52;;;;;;;;;25.33;24.00;;;;;;;;4959635;28;45455;-79
2022/05/08 02:28:17;;;;;;;;;31.67;28.33;;;;;;;;4954598;28;45391;-76
2022/05/08 02:30:42;;;;;;;;;29.33;21.67;;;;;;;;4956709;28;45384;-78
2022/05/08 02:33:07;;;;;;;;;22.67;21.00;;;;;;;;4941530;28;46311;-77
2022/05/08 02:35:34;;;;;;;;;23.00;21.33;;;;;;;;4954578;28;46191;-76
2022/05/08 02:37:59;;;;;;;;;21.33;20.00;;;;;;;;4936851;28;45424;-75
2022/05/08 02:40:25;;;;;;;;;27.33;20.67;;;;;;;;4920530;28;45753;-76
2022/05/08 02:42:58;;;;;;;;;28.33;24.33;;;;;;;;4936980;28;45790;-76
2022/05/08 02:45:24;;;;;;;;;28.67;24.00;;;;;;;;4938931;28;48052;-76
2022/05/08 02:47:50;;;;;;;;;33.67;23.33;;;;;;;;4963110;28;45529;-83
2022/05/08 02:50:20;;;;;;;;;29.33;22.67;;;;;;;;4964056;28;45435;-80
2022/05/08 02:52:51;;;;;;;;;36.00;29.67;;;;;;;;4947577;28;46643;-80
2022/05/08 03:00:53;;;;;;;;;33.67;29.67;;;;;;;;4959291;28;45723;-79
2022/05/08 03:03:21;;;;;;;;;31.33;28.33;;;;;;;;4941311;28;45391;-77
2022/05/08 03:05:50;;;;;;;;;37.33;32.33;;;;;;;;4937905;28;46953;-77
2022/05/08 03:08:19;;;;;;;;;42.33;35.67;;;;;;;;4938424;28;45537;-78
2022/05/08 03:13:32;;;;;;;;;42.67;37.00;;;;;;;;4962076;28;45468;-78
2022/05/08 03:15:58;;;;;;;;;42.33;35.67;;;;;;;;4960361;28;47652;-76
2022/05/08 03:18:23;;;;;;;;;42.67;37.67;;;;;;;;4941700;28;45642;-76
2022/05/08 03:20:49;;;;;;;;;41.33;37.33;;;;;;;;4937726;28;45869;-77
2022/05/08 03:23:14;;;;;;;;;44.00;37.00;;;;;;;;4920730;28;46964;-77
2022/05/08 03:25:46;;;;;;;;;51.67;36.67;;;;;;;;4921218;28;47400;-77
2022/05/08 03:28:15;;;;;;;;;49.33;37.33;;;;;;;;4943380;28;45458;-77
2022/05/08 03:30:41;;;;;;;;;38.00;31.33;;;;;;;;4922016;28;45717;-82
2022/05/08 03:33:08;;;;;;;;;39.67;34.00;;;;;;;;4919674;28;46972;-76
2022/05/08 03:35:37;;;;;;;;;51.00;36.33;;;;;;;;4916523;28;47172;-77
2022/05/08 03:38:02;;;;;;;;;45.33;36.33;;;;;;;;4921569;28;45797;-75
2022/05/08 03:40:37;;;;;;;;;51.33;40.67;;;;;;;;4940524;28;45470;-79
2022/05/08 03:43:02;;;;;;;;;50.00;39.00;;;;;;;;4955583;28;45784;-76
2022/05/08 03:45:28;;;;;;;;;46.33;38.00;;;;;;;;4955111;28;47178;-80
2022/05/08 03:47:54;;;;;;;;;45.00;37.33;;;;;;;;4956136;28;45368;-76
2022/05/08 03:50:29;;;;;;;;;48.00;37.00;;;;;;;;4937085;28;45307;-77
2022/05/08 03:52:54;;;;;;;;;41.33;35.67;;;;;;;;4955141;28;45394;-78
2022/05/08 03:55:20;;;;;;;;;47.33;37.67;;;;;;;;4937111;28;46785;-77
2022/05/08 03:57:45;;;;;;;;;54.67;42.00;;;;;;;;4936687;28;45384;-80
2022/05/08 04:00:11;;;;;;;;;44.67;38.00;;;;;;;;4957241;28;45465;-80
2022/05/08 04:02:36;;;;;;;;;49.33;36.67;;;;;;;;4958877;28;46139;-79
2022/05/08 04:05:03;;;;;;;;;42.67;38.33;;;;;;;;4935355;28;46839;-78
2022/05/08 04:07:28;;;;;;;;;51.00;40.33;;;;;;;;4918348;28;45288;-79
2022/05/08 04:09:53;;;;;;;;;50.33;40.33;;;;;;;;4933447;28;45514;-75
2022/05/08 04:12:18;;;;;;;;;52.00;41.00;;;;;;;;4935354;28;45643;-80
2022/05/08 04:14:44;;;;;;;;;49.33;39.33;;;;;;;;4935068;28;45542;-75
2022/05/08 04:17:09;;;;;;;;;44.33;39.67;;;;;;;;4933528;28;45430;-79
2022/05/08 04:19:34;;;;;;;;;42.67;36.00;;;;;;;;4916711;28;46186;-75
2022/05/08 04:24:47;;;;;;;;;45.33;39.00;;;;;;;;4933628;28;45735;-75
2022/05/08 04:27:12;;;;;;;;;43.33;37.00;;;;;;;;4915360;28;45726;-76
2022/05/08 04:29:37;;;;;;;;;50.33;39.00;;;;;;;;4937409;28;45433;-81
2022/05/08 04:32:03;;;;;;;;;50.33;39.33;;;;;;;;4938333;28;46109;-81
2022/05/08 04:34:28;;;;;;;;;50.67;39.33;;;;;;;;4926009;28;45809;-79
2022/05/08 04:36:53;;;;;;;;;38.33;35.33;;;;;;;;4913702;28;45715;-75
2022/05/08 04:39:19;;;;;;;;;44.33;36.67;;;;;;;;4900552;28;45557;-74
2022/05/08 04:41:44;;;;;;;;;45.67;39.67;;;;;;;;4903139;28;45907;-76
2022/05/08 04:44:10;;;;;;;;;50.67;41.00;;;;;;;;4914138;28;47047;-72
2022/05/08 04:46:35;;;;;;;;;51.33;38.67;;;;;;;;4908268;28;45959;-75
2022/05/08 04:49:10;;;;;;;;;46.67;38.00;;;;;;;;4912741;28;45462;-89
2022/05/08 04:51:51;;;;;;;;;;;;;;;;;;;;;
2022/05/08 04:54:17;;;;;;;;;57.67;43.00;;;;;;;;4934449;28;75092;-77
2022/05/08 04:56:43;;;;;;;;;57.67;41.33;;;;;;;;4921656;28;45467;-78
2022/05/08 04:59:18;;;;;;;;;54.67;43.33;;;;;;;;4942599;28;45465;-79
2022/05/08 05:05:36;;;;;;;;;43.67;39.00;;;;;;;;4876371;29;45660;-86
2022/05/08 05:08:22;;;;;;;;;53.00;42.00;;;;;;;;4834158;29;46109;-84
2022/05/08 05:11:16;;;;;;;;;47.67;39.00;;;;;;;;4871902;29;45598;-85
2022/05/08 05:13:41;;;;;;;;;49.00;40.00;;;;;;;;4852794;29;45714;-82
2022/05/08 05:16:07;;;;;;;;;51.33;40.33;;;;;;;;4860872;29;46227;-79
2022/05/08 05:18:33;;;;;;;;;51.33;40.67;;;;;;;;4858670;29;45933;-82
2022/05/08 05:20:59;;;;;;;;;49.67;40.67;;;;;;;;4862031;28;45967;-81
2022/05/08 05:23:24;;;;;;;;;46.00;38.67;;;;;;;;4920392;28;46061;-83
2022/05/08 05:25:52;;;;;;;;;52.67;41.00;;;;;;;;4940948;28;46215;-84
2022/05/08 05:28:18;;;;;;;;;53.00;41.00;;;;;;;;4934652;28;45427;-76
2022/05/08 05:30:51;;;;;;;;;47.00;39.33;;;;;;;;4917577;28;46141;-82
2022/05/08 05:33:16;;;;;;;;;57.67;45.33;;;;;;;;4936737;28;46065;-81
2022/05/08 05:35:42;;;;;;;;;47.00;39.33;;;;;;;;4930234;28;47119;-80
2022/05/08 05:38:08;;;;;;;;;36.33;34.67;;;;;;;;4919924;28;45965;-79
2022/05/08 05:40:33;;;;;;;;;45.00;38.67;;;;;;;;4912819;28;45608;-81
2022/05/08 05:42:58;;;;;;;;;51.00;39.00;;;;;;;;4920920;28;45568;-82
2022/05/08 05:45:27;;;;;;;;;53.00;41.67;;;;;;;;4911336;28;47510;-80
2022/05/08 05:47:59;;;;;;;;;54.67;41.00;;;;;;;;4919451;28;45396;-79
2022/05/08 05:50:25;;;;;;;;;47.33;37.33;;;;;;;;4934002;28;44977;-76
2022/05/08 05:52:51;;;;;;;;;59.33;42.67;;;;;;;;4909139;28;45883;-77
2022/05/08 05:55:17;;;;;;;;;60.00;45.67;;;;;;;;4917776;28;46519;-78
2022/05/08 05:57:42;;;;;;;;;45.67;41.00;;;;;;;;4941167;28;45796;-80
2022/05/08 06:00:10;;;;;;;;;48.00;40.00;;;;;;;;4925402;28;45954;-88
2022/05/08 06:03:12;;;;;;;;;46.67;38.67;;;;;;;;4939076;28;45462;-86
2022/05/08 06:05:38;;;;;;;;;49.67;40.33;;;;;;;;4943040;28;45569;-79
2022/05/08 06:08:06;;;;;;;;;46.33;34.00;;;;;;;;4949353;28;45581;-84
2022/05/08 06:10:36;;;;;;;;;48.00;38.67;;;;;;;;4923074;28;45857;-86
2022/05/08 06:13:21;;;;;;;;;49.67;42.00;;;;;;;;4923644;28;46530;-82
2022/05/08 06:15:47;;;;;;;;;55.00;42.00;;;;;;;;4919572;28;46576;-84
2022/05/08 06:18:23;;;;;;;;;50.00;38.67;;;;;;;;4914255;28;45456;-83
2022/05/08 06:20:54;;;;;;;;;57.00;39.00;;;;;;;;4943574;28;45914;-83
2022/05/08 06:23:32;;;;;;;;;52.67;41.33;;;;;;;;4928335;28;45625;-87
2022/05/08 06:26:08;;;;;;;;;48.33;40.00;;;;;;;;4945077;28;46700;-87
2022/05/08 06:44:36;;;;;;;;;55.00;41.00;;;;;;;;4848854;29;45653;-81
2022/05/08 06:50:21;;;;;;;;;;;;;;;;;;;;;
2022/05/08 06:52:50;;;;;;;;;46.00;38.00;;;;;;;;4869824;29;71651;-87
2022/05/08 06:55:31;;;;;;;;;46.00;36.67;;;;;;;;4853421;29;45544;-88
2022/05/08 07:04:38;;;;;;;;;44.67;36.33;;;;;;;;4865986;29;45570;-88
2022/05/08 07:07:29;;;;;;;;;55.00;42.67;;;;;;;;4880739;29;45574;-82
2022/05/08 07:13:56;;;;;;;;;47.67;37.67;;;;;;;;4907444;28;45984;-88
2022/05/08 07:16:52;;;;;;;;;49.67;39.33;;;;;;;;4856382;29;46305;-83
2022/05/08 07:19:38;;;;;;;;;43.67;37.33;;;;;;;;4928257;28;45892;-83
2022/05/08 07:22:23;;;;;;;;;44.33;37.33;;;;;;;;4937105;28;45473;-87
2022/05/08 07:25:12;;;;;;;;;48.33;40.00;;;;;;;;4940896;28;45581;-91
2022/05/08 07:27:42;;;;;;;;;45.33;38.00;;;;;;;;4921704;28;45701;-84
2022/05/08 07:30:11;;;;;;;;;49.00;38.00;;;;;;;;4935631;28;45935;-81
2022/05/08 07:32:39;;;;;;;;;47.67;32.67;;;;;;;;4927341;28;45773;-81
2022/05/08 07:38:10;;;;;;;;;40.33;33.00;;;;;;;;4901774;28;45546;-83
2022/05/08 07:41:22;;;;;;;;;41.67;35.67;;;;;;;;4931008;28;45886;-82
2022/05/08 07:44:31;;;;;;;;;36.67;33.67;;;;;;;;4869539;29;45486;-89
2022/05/08 07:47:35;;;;;;;;;47.33;37.33;;;;;;;;4860076;29;45706;-83
2022/05/08 07:50:07;;;;;;;;;43.00;35.33;;;;;;;;4837975;29;45948;-88
2022/05/08 07:53:06;;;;;;;;;41.00;34.67;;;;;;;;4840504;29;45267;-89
2022/05/08 07:58:44;;;;;;;;;53.33;40.00;;;;;;;;4791734;29;46572;-81
2022/05/08 08:01:31;;;;;;;;;42.00;35.00;;;;;;;;4860445;29;45624;-83
2022/05/08 08:10:29;;;;;;;;;46.67;35.67;;;;;;;;4840062;29;45984;-81
2022/05/08 08:13:31;;;;;;;;;33.33;31.00;;;;;;;;4837814;29;45981;-83
2022/05/08 08:16:13;;;;;;;;;38.33;32.67;;;;;;;;4835614;29;46148;-83
2022/05/08 08:19:15;;;;;;;;;41.33;34.67;;;;;;;;4828408;29;46200;-81
2022/05/08 08:21:53;;;;;;;;;45.00;34.67;;;;;;;;4917334;28;46147;-82
2022/05/08 08:24:50;;;;;;;;;41.00;34.67;;;;;;;;4925272;28;45896;-85
2022/05/08 08:27:32;;;;;;;;;47.00;35.67;;;;;;;;4876968;29;46020;-82
2022/05/08 08:30:39;;;;;;;;;44.33;38.33;;;;;;;;4932106;28;45898;-82
2022/05/08 08:33:05;;;;;;;;;43.67;34.00;;;;;;;;4875191;29;45602;-83
2022/05/08 08:35:43;;;;;;;;;38.67;33.00;;;;;;;;4918719;28;45729;-86
2022/05/08 08:38:18;;;;;;;;;39.67;31.00;;;;;;;;4930832;28;45869;-83
2022/05/08 08:40:57;;;;;;;;;40.00;32.67;;;;;;;;4944227;28;45353;-90
2022/05/08 08:43:24;;;;;;;;;41.33;34.67;;;;;;;;4916779;28;46312;-83
2022/05/08 08:48:42;;;;;;;;;35.33;31.33;;;;;;;;4929187;28;45722;-81
2022/05/08 08:54:51;;;;;;;;;42.67;35.33;;;;;;;;4925785;28;45812;-83
2022/05/08 08:57:40;;;;;;;;;40.33;34.33;;;;;;;;4863103;28;46491;-91
2022/05/08 09:00:16;;;;;;;;;35.00;32.67;;;;;;;;4928095;28;45486;-79
2022/05/08 09:02:41;;;;;;;;;44.00;35.00;;;;;;;;4901585;28;46132;-78
2022/05/08 09:05:08;;;;;;;;;43.33;34.33;;;;;;;;4924637;28;45702;-79
2022/05/08 09:07:33;;;;;;;;;41.00;33.33;;;;;;;;4923723;28;45885;-78
2022/05/08 09:10:18;;;;;;;;;41.00;34.00;;;;;;;;4921303;28;45712;-77
2022/05/08 09:12:45;;;;;;;;;55.00;45.33;;;;;;;;4924658;28;45790;-81
2022/05/08 09:15:24;;;;;;;;;42.00;34.50;;;;;;;;4916320;28;47474;-80
2022/05/08 09:17:53;;;;;;;;;39.67;33.33;;;;;;;;4917357;28;45429;-81
2022/05/08 09:20:29;;;;;;;;;46.33;35.33;;;;;;;;4904797;28;45807;-81
2022/05/08 09:23:03;;;;;;;;;38.00;33.33;;;;;;;;4916703;28;45775;-80
2022/05/08 09:25:46;;;;;;;;;44.00;34.67;;;;;;;;4925523;28;47265;-84
2022/05/08 09:28:20;;;;;;;;;53.00;35.67;;;;;;;;4935760;28;45391;-85
2022/05/08 09:30:53;;;;;;;;;39.67;34.00;;;;;;;;4929486;28;45878;-82
2022/05/08 09:33:35;;;;;;;;;39.67;33.33;;;;;;;;4927233;28;46758;-78
2022/05/08 09:36:03;;;;;;;;;42.67;34.33;;;;;;;;4931295;28;45808;-80
2022/05/08 09:38:45;;;;;;;;;39.67;32.00;;;;;;;;4918171;28;45830;-83
2022/05/08 09:41:34;;;;;;;;;47.67;35.33;;;;;;;;4932029;28;45596;-83
2022/05/08 09:44:14;;;;;;;;;45.67;33.33;;;;;;;;4923568;28;45835;-80
2022/05/08 09:46:43;;;;;;;;;48.67;37.67;;;;;;;;4938286;28;45422;-80
2022/05/08 09:49:11;;;;;;;;;41.67;37.00;;;;;;;;4937343;28;45766;-79
2022/05/08 09:51:37;;;;;;;;;49.00;35.67;;;;;;;;4926837;28;45729;-78
2022/05/08 09:54:02;;;;;;;;;40.67;30.67;;;;;;;;4921171;28;45375;-80
2022/05/08 09:56:31;;;;;;;;;40.33;34.67;;;;;;;;4926341;28;46110;-80
2022/05/08 09:58:57;;;;;;;;;45.67;36.00;;;;;;;;4922623;28;45482;-76
2022/05/08 10:01:23;;;;;;;;;36.33;32.67;;;;;;;;4918242;28;45783;-77
2022/05/08 10:03:49;;;;;;;;;36.33;30.33;;;;;;;;4926690;28;45551;-81
2022/05/08 10:06:15;;;;;;;;;38.67;32.00;;;;;;;;4930682;28;46681;-80
2022/05/08 10:08:41;;;;;;;;;44.00;34.67;;;;;;;;4920205;28;45660;-79
2022/05/08 10:16:59;;;;;;;;;49.33;34.67;;;;;;;;4941072;28;45817;-82
2022/05/08 10:23:01;;;;;;;;;199.67;163.00;;;;;;;;4883205;29;45956;-84
2022/05/08 10:26:20;;;;;;;;;64.00;49.67;;;;;;;;4878406;29;45634;-85
2022/05/08 10:29:06;;;;;;;;;52.00;42.33;;;;;;;;4841687;29;45502;-86
2022/05/08 10:32:01;;;;;;;;;48.00;37.67;;;;;;;;4842316;29;45515;-80
2022/05/08 10:34:47;;;;;;;;;;;;;;;;;;;;;
2022/05/08 10:37:16;;;;;;;;;37.33;35.33;;;;;;;;4858152;29;74171;-82
2022/05/08 10:43:11;;;;;;;;;37.67;35.00;;;;;;;;4856285;29;45618;-80
2022/05/08 11:05:01;;;;;;;;;35.33;30.33;;;;;;;;4840554;29;45730;-83
2022/05/08 11:07:31;;;;;;;;;26.00;24.67;;;;;;;;4856922;29;45395;-82
2022/05/08 11:23:38;;;;;;;;;42.33;34.00;;;;;;;;4857511;29;45446;-85
2022/05/08 11:26:16;;;;;;;;;42.00;35.33;;;;;;;;4872534;29;46415;-90
2022/05/08 11:29:06;;;;;;;;;39.00;34.67;;;;;;;;4884104;29;45526;-82
2022/05/08 11:31:33;;;;;;;;;32.00;29.33;;;;;;;;4866787;29;45836;-87
2022/05/08 11:37:01;;;;;;;;;30.00;27.33;;;;;;;;4932576;28;45641;-87
2022/05/08 11:39:44;;;;;;;;;38.00;34.33;;;;;;;;4936836;28;45663;-84
2022/05/08 11:42:09;;;;;;;;;34.67;30.33;;;;;;;;4932507;28;45535;-85
2022/05/08 11:44:35;;;;;;;;;38.33;33.33;;;;;;;;4920130;28;45430;-86
2022/05/08 11:47:03;;;;;;;;;43.33;34.67;;;;;;;;4932556;28;46376;-85
2022/05/08 11:49:51;;;;;;;;;37.33;33.00;;;;;;;;4937872;28;47899;-87
2022/05/08 11:52:22;;;;;;;;;37.33;33.67;;;;;;;;4936171;28;45698;-85
2022/05/08 11:55:02;;;;;;;;;33.33;29.33;;;;;;;;4922102;28;45493;-85
2022/05/08 11:57:51;;;;;;;;;49.00;38.33;;;;;;;;4932735;28;45358;-83
2022/05/08 12:00:18;;;;;;;;;34.67;30.67;;;;;;;;4925275;28;46747;-83
2022/05/08 12:03:04;;;;;;;;;42.67;36.00;;;;;;;;4925312;28;46608;-85
2022/05/08 12:09:11;;;;;;;;;35.67;31.00;;;;;;;;4844310;29;45762;-85
2022/05/08 12:15:10;;;;;;;;;34.67;30.00;;;;;;;;4885139;29;45392;-86
2022/05/08 12:17:59;;;;;;;;;31.33;28.00;;;;;;;;4866489;29;45595;-78
2022/05/08 12:20:35;;;;;;;;;29.67;28.33;;;;;;;;4893717;28;45837;-81
2022/05/08 12:23:05;;;;;;;;;34.33;24.33;;;;;;;;4894633;28;46336;-77
2022/05/08 12:25:43;;;;;;;;;25.67;23.33;;;;;;;;4893541;28;45501;-79
2022/05/08 12:28:15;;;;;;;;;34.67;27.00;;;;;;;;4896916;28;45437;-81
2022/05/08 12:30:43;;;;;;;;;33.33;30.33;;;;;;;;4902720;28;46037;-81
2022/05/08 12:36:35;;;;;;;;;31.00;28.33;;;;;;;;4823837;29;45849;-78
2022/05/08 12:39:00;;;;;;;;;29.33;29.33;;;;;;;;4831617;29;45399;-83
2022/05/08 12:41:26;;;;;;;;;31.67;29.33;;;;;;;;4843657;29;45854;-82
2022/05/08 12:43:51;;;;;;;;;38.00;34.00;;;;;;;;4888131;29;46602;-84
2022/05/08 12:46:17;;;;;;;;;28.33;27.67;;;;;;;;4909076;29;45327;-83
2022/05/08 12:48:45;;;;;;;;;27.67;26.00;;;;;;;;4906457;28;45969;-83
2022/05/08 12:51:14;;;;;;;;;31.67;29.33;;;;;;;;4915484;28;45911;-78
2022/05/08 12:53:39;;;;;;;;;31.00;31.00;;;;;;;;4889607;28;48375;-81
2022/05/08 12:56:12;;;;;;;;;28.50;25.50;;;;;;;;4901717;28;45453;-84
2022/05/08 13:01:21;;;;;;;;;28.33;23.00;;;;;;;;4913943;28;44804;-81
2022/05/08 13:03:48;;;;;;;;;30.33;25.00;;;;;;;;4910653;28;46740;-80
2022/05/08 13:06:14;;;;;;;;;37.00;32.00;;;;;;;;4925850;28;45573;-82
2022/05/08 13:11:53;;;;;;;;;25.33;19.67;;;;;;;;4909033;28;45857;-77
2022/05/08 13:14:21;;;;;;;;;18.67;18.33;;;;;;;;4922247;28;45815;-77
2022/05/08 13:16:46;;;;;;;;;23.00;21.67;;;;;;;;4907443;28;45455;-79
2022/05/08 13:19:21;;;;;;;;;22.00;17.67;;;;;;;;4922231;28;45448;-83
2022/05/08 13:21:56;;;;;;;;;16.67;13.00;;;;;;;;4927133;28;47878;-82
2022/05/08 13:24:28;;;;;;;;;23.33;20.33;;;;;;;;4929804;28;47126;-82
2022/05/08 13:27:06;;;;;;;;;18.00;13.33;;;;;;;;4931903;28;45328;-83
2022/05/08 13:29:39;;;;;;;;;21.00;17.33;;;;;;;;4944682;28;46097;-81
2022/05/08 15:03:41;;;;;;;;;16.67;12.67;;;;;;;;4936914;28;45666;-87
2022/05/08 15:19:26;;;;;;;;;;;;;;;;;;;;;
2022/05/08 15:45:13;;;;;;;;;;;;;;;;;;;;;
2022/05/08 15:48:20;;;;;;;;;;;;;;;;;;;;;
2022/05/08 16:03:38;;;;;;;;;10.67;10.33;;;;;;;;4734599;29;45392;-80
2022/05/08 16:27:40;;;;;;;;;11.33;8.00;;;;;;;;4814986;29;45838;-80
2022/05/08 16:30:37;;;;;;;;;12.33;12.33;;;;;;;;4832684;29;47140;-80
2022/05/08 16:33:44;;;;;;;;;13.33;10.33;;;;;;;;4885109;28;45886;-77
2022/05/08 17:10:36;;;;;;;;;8.00;7.33;;;;;;;;4859926;29;46008;-78
2022/05/08 17:54:41;;;;;;;;;16.00;13.33;;;;;;;;4830230;29;45411;-79
2022/05/08 18:06:49;;;;;;;;;12.33;10.67;;;;;;;;4868711;29;45401;-86
2022/05/08 18:34:13;;;;;;;;;9.67;9.67;;;;;;;;4837230;29;45590;-77
2022/05/08 18:36:45;;;;;;;;;13.67;11.67;;;;;;;;4842634;28;46070;-74
2022/05/08 18:39:40;;;;;;;;;;;;;;;;;;;;;
2022/05/08 18:42:41;;;;;;;;;11.33;10.33;;;;;;;;4930436;28;74276;-81
2022/05/08 18:48:27;;;;;;;;;13.00;10.00;;;;;;;;4883371;28;45659;-80
2022/05/08 18:51:35;;;;;;;;;;;;;;;;;;;;;
2022/05/08 18:54:04;;;;;;;;;15.33;12.67;;;;;;;;4904577;28;73383;-79
2022/05/08 18:56:31;;;;;;;;;14.33;13.67;;;;;;;;4925842;28;45573;-79
2022/05/08 18:59:30;;;;;;;;;;;;;;;;;;;;;
2022/05/08 19:02:36;;;;;;;;;11.00;11.00;;;;;;;;4873533;28;69117;-81
2022/05/08 19:05:07;;;;;;;;;13.33;10.00;;;;;;;;4916214;28;45836;-81
2022/05/08 19:07:35;;;;;;;;;12.67;12.33;;;;;;;;4916939;28;47316;-80
2022/05/08 19:10:01;;;;;;;;;13.00;12.33;;;;;;;;4929920;28;45702;-82
2022/05/08 19:12:27;;;;;;;;;11.00;11.00;;;;;;;;4928460;28;45795;-80
2022/05/08 19:14:53;;;;;;;;;14.67;14.00;;;;;;;;4923858;28;45815;-77
2022/05/08 19:17:20;;;;;;;;;14.00;11.67;;;;;;;;4921562;28;45645;-77
2022/05/08 19:19:45;;;;;;;;;16.33;14.67;;;;;;;;4904945;28;45648;-78
2022/05/08 19:22:12;;;;;;;;;12.67;12.00;;;;;;;;4928637;28;45828;-77
2022/05/08 19:24:37;;;;;;;;;6.67;6.67;;;;;;;;4925551;28;45774;-77
2022/05/08 19:27:03;;;;;;;;;12.67;12.00;;;;;;;;4917770;28;46694;-78
2022/05/08 19:29:31;;;;;;;;;10.33;10.33;;;;;;;;4912478;28;45970;-76
2022/05/08 19:40:29;;;;;;;;;16.00;14.00;;;;;;;;4874033;29;45566;-78
2022/05/08 19:42:55;;;;;;;;;14.33;14.33;;;;;;;;4917789;28;45505;-79
2022/05/08 19:45:40;;;;;;;;;12.33;11.00;;;;;;;;4918366;28;45525;-78
2022/05/08 19:48:07;;;;;;;;;12.67;11.67;;;;;;;;4919234;28;46816;-81
2022/05/08 19:50:32;;;;;;;;;14.00;11.67;;;;;;;;4911198;28;46019;-81
2022/05/08 19:53:02;;;;;;;;;11.67;10.00;;;;;;;;4945953;28;45741;-82
2022/05/08 19:55:27;;;;;;;;;15.00;15.00;;;;;;;;4909256;28;45855;-82
2022/05/08 19:57:56;;;;;;;;;9.67;9.00;;;;;;;;4928687;28;45504;-82
2022/05/08 20:00:22;;;;;;;;;12.67;12.33;;;;;;;;4910809;28;45844;-84
2022/05/08 20:02:47;;;;;;;;;15.67;12.00;;;;;;;;4911493;28;45537;-80
2022/05/08 20:05:19;;;;;;;;;13.67;9.67;;;;;;;;4917088;28;45522;-81
2022/05/08 20:07:47;;;;;;;;;15.67;12.00;;;;;;;;4923071;28;48101;-82
2022/05/08 20:10:16;;;;;;;;;10.67;10.67;;;;;;;;4917436;28;45545;-81
2022/05/08 20:12:42;;;;;;;;;12.67;10.33;;;;;;;;4904266;28;45565;-79
2022/05/08 20:15:20;;;;;;;;;13.33;10.67;;;;;;;;4914040;28;45591;-79
2022/05/08 20:31:11;;;;;;;;;;;;;;;;;;;;;
2022/05/08 20:36:36;;;;;;;;;13.67;13.67;;;;;;;;4787874;29;45581;-77
2022/05/08 20:39:02;;;;;;;;;10.67;10.67;;;;;;;;4880228;28;45751;-75
2022/05/08 20:41:29;;;;;;;;;12.00;11.00;;;;;;;;4911364;28;48487;-80
2022/05/08 20:43:56;;;;;;;;;10.67;10.67;;;;;;;;4912176;28;45534;-79
2022/05/08 20:46:21;;;;;;;;;12.67;11.33;;;;;;;;4903837;28;45431;-82
2022/05/08 20:48:47;;;;;;;;;14.00;13.67;;;;;;;;4916628;28;45589;-78
2022/05/08 20:51:12;;;;;;;;;14.67;13.00;;;;;;;;4921290;28;45553;-77
2022/05/08 20:53:39;;;;;;;;;16.33;14.67;;;;;;;;4910720;28;45867;-79
2022/05/08 20:56:08;;;;;;;;;14.33;14.33;;;;;;;;4912903;28;45627;-80
2022/05/08 20:58:33;;;;;;;;;14.33;13.00;;;;;;;;4921498;28;45752;-78
2022/05/08 21:01:09;;;;;;;;;19.33;14.33;;;;;;;;4914681;28;48071;-82
2022/05/08 21:03:35;;;;;;;;;17.67;14.33;;;;;;;;4918693;28;45639;-83
2022/05/08 21:08:55;;;;;;;;;14.67;13.00;;;;;;;;4884422;28;45449;-82
2022/05/08 21:11:21;;;;;;;;;14.67;12.00;;;;;;;;4913779;28;46529;-80
2022/05/08 21:13:47;;;;;;;;;11.67;9.00;;;;;;;;4909278;28;45743;-82
2022/05/08 21:16:17;;;;;;;;;17.67;15.67;;;;;;;;4926715;28;45576;-82
2022/05/08 21:18:43;;;;;;;;;16.67;15.67;;;;;;;;4907269;28;46081;-82
2022/05/08 21:21:11;;;;;;;;;17.67;15.00;;;;;;;;4917058;28;45957;-79
2022/05/08 21:23:37;;;;;;;;;20.33;13.33;;;;;;;;4923423;28;45342;-76
2022/05/08 21:26:07;;;;;;;;;18.00;17.00;;;;;;;;4920569;28;45336;-82
2022/05/08 21:28:36;;;;;;;;;15.33;12.67;;;;;;;;4917576;28;46015;-81
2022/05/08 21:31:02;;;;;;;;;19.00;18.00;;;;;;;;4900844;28;47643;-79
2022/05/08 21:33:28;;;;;;;;;17.33;14.33;;;;;;;;4913116;28;45671;-79
2022/05/08 21:35:54;;;;;;;;;18.33;15.00;;;;;;;;4922740;28;45311;-80
2022/05/08 21:38:19;;;;;;;;;14.33;14.33;;;;;;;;4915777;28;45967;-81
2022/05/08 21:41:10;;;;;;;;;19.67;19.33;;;;;;;;4919597;28;45686;-78
2022/05/08 21:43:38;;;;;;;;;15.33;13.00;;;;;;;;4890896;28;45618;-79
2022/05/08 21:46:13;;;;;;;;;18.00;13.33;;;;;;;;4893827;28;45425;-79
2022/05/08 21:48:47;;;;;;;;;18.00;16.33;;;;;;;;4889575;28;45499;-78
2022/05/08 21:51:14;;;;;;;;;18.67;16.00;;;;;;;;4897212;28;48230;-81
2022/05/08 21:53:48;;;;;;;;;18.00;15.67;;;;;;;;4901603;28;45527;-82
2022/05/08 21:56:17;;;;;;;;;15.67;13.00;;;;;;;;4909981;28;45484;-83
2022/05/08 21:59:10;;;;;;;;;21.33;14.67;;;;;;;;4917184;28;45630;-82
2022/05/08 22:01:55;;;;;;;;;22.67;20.00;;;;;;;;4900376;28;46291;-79
2022/05/08 22:04:27;;;;;;;;;16.67;15.67;;;;;;;;4895529;28;45284;-82